CheckWX is a tool to help pilots better visualize weather data.  It is not intended as a substitute for an official pre-flight weather briefing.

21:07:16 UTC

KEFD METAR
Ellington Airport
Houston, Texas, USA
Current

1 hour ago

KEFD 291950Z 30010KT 10SM BKN025 12/07 A3002
Observed
Jan-29 @ 19:50 UTC
Wind
  • 300° at 10 KTS
Visibility
10 SM
Flight Rules
MVFR
Cloud Levels
  • Broken at 2,500' AGL
Temperature
12°C / 54°F
Dewpoint
C / 45°F
Humidity
72%
Altimeter
30.02" Hg
Pressure
1016.62 hPa
Previous

2 hours ago

KEFD 291850Z 30012KT 10SM BKN025 12/07 A3002
Observed
Jan-29 @ 18:50 UTC
Wind
  • 300° at 12 KTS
Visibility
10 SM
Flight Rules
MVFR
Cloud Levels
  • Broken at 2,500' AGL
Temperature
12°C / 54°F
Dewpoint
C / 45°F
Humidity
72%
Altimeter
30.02" Hg
Pressure
1016.62 hPa
Previous

3 hours ago

KEFD 291750Z 31013KT 10SM OVC022 11/06 A3004
Observed
Jan-29 @ 17:50 UTC
Wind
  • 310° at 13 KTS
Visibility
10 SM
Flight Rules
MVFR
Cloud Levels
  • Overcast at 2,200' AGL
Temperature
11°C / 52°F
Dewpoint
C / 43°F
Humidity
72%
Altimeter
30.04" Hg
Pressure
1017.32 hPa